sensor_id;sensor_type;location;lat;lon;timestamp;P1;P2;P0
57049;PMS7003;42935;50.966;16.992;2023-01-04T00:00:36;71;52;33
57049;PMS7003;42935;50.966;16.992;2023-01-04T00:03:51;77;54;34
57049;PMS7003;42935;50.966;16.992;2023-01-04T00:07:03;93;68;39
57049;PMS7003;42935;50.966;16.992;2023-01-04T00:10:21;88;63;38
57049;PMS7003;42935;50.966;16.992;2023-01-04T00:13:30;82;59;36
57049;PMS7003;42935;50.966;16.992;2023-01-04T00:16:44;70;51;32
57049;PMS7003;42935;50.966;16.992;2023-01-04T00:20:00;74;53;32
57049;PMS7003;42935;50.966;16.992;2023-01-04T00:23:14;70;50;32
57049;PMS7003;42935;50.966;16.992;2023-01-04T00:26:57;71;52;32
57049;PMS7003;42935;50.966;16.992;2023-01-04T00:30:12;74;53;32
57049;PMS7003;42935;50.966;16.992;2023-01-04T00:33:30;72;51;32
57049;PMS7003;42935;50.966;16.992;2023-01-04T00:37:19;73;52;32
57049;PMS7003;42935;50.966;16.992;2023-01-04T00:40:28;75;54;33
57049;PMS7003;42935;50.966;16.992;2023-01-04T00:43:44;73;52;33
57049;PMS7003;42935;50.966;16.992;2023-01-04T00:46:58;71;52;32
57049;PMS7003;42935;50.966;16.992;2023-01-04T00:50:08;74;53;33
57049;PMS7003;42935;50.966;16.992;2023-01-04T00:53:21;64;46;29
57049;PMS7003;42935;50.966;16.992;2023-01-04T00:56:32;74;53;32
57049;PMS7003;42935;50.966;16.992;2023-01-04T00:59:46;73;53;32
57049;PMS7003;42935;50.966;16.992;2023-01-04T01:03:08;69;50;33
57049;PMS7003;42935;50.966;16.992;2023-01-04T01:06:22;74;52;33
57049;PMS7003;42935;50.966;16.992;2023-01-04T01:09:32;67;50;30
57049;PMS7003;42935;50.966;16.992;2023-01-04T01:12:46;71;53;33
57049;PMS7003;42935;50.966;16.992;2023-01-04T01:16:09;76;52;32
57049;PMS7003;42935;50.966;16.992;2023-01-04T01:19:25;67;49;29
57049;PMS7003;42935;50.966;16.992;2023-01-04T01:22:37;71;51;31
57049;PMS7003;42935;50.966;16.992;2023-01-04T01:25:47;67;50;32
57049;PMS7003;42935;50.966;16.992;2023-01-04T01:29:03;69;50;32
57049;PMS7003;42935;50.966;16.992;2023-01-04T01:32:19;72;52;32
57049;PMS7003;42935;50.966;16.992;2023-01-04T01:35:32;62;46;29
57049;PMS7003;42935;50.966;16.992;2023-01-04T01:38:52;62;45;27
57049;PMS7003;42935;50.966;16.992;2023-01-04T01:42:02;54;43;26
57049;PMS7003;42935;50.966;16.992;2023-01-04T01:48:45;56;40;24
57049;PMS7003;42935;50.966;16.992;2023-01-04T01:52:01;60;43;26
57049;PMS7003;42935;50.966;16.992;2023-01-04T01:55:11;54;37;24
57049;PMS7003;42935;50.966;16.992;2023-01-04T01:58:31;50;37;23
57049;PMS7003;42935;50.966;16.992;2023-01-04T02:01:57;44;34;22
57049;PMS7003;42935;50.966;16.992;2023-01-04T02:05:42;45;31;20
57049;PMS7003;42935;50.966;16.992;2023-01-04T02:08:58;45;34;21
57049;PMS7003;42935;50.966;16.992;2023-01-04T02:12:12;45;34;23
57049;PMS7003;42935;50.966;16.992;2023-01-04T02:15:22;41;33;21
57049;PMS7003;42935;50.966;16.992;2023-01-04T02:18:45;43;29;18
57049;PMS7003;42935;50.966;16.992;2023-01-04T02:22:14;43;31;17
57049;PMS7003;42935;50.966;16.992;2023-01-04T02:32:32;35;30;19
57049;PMS7003;42935;50.966;16.992;2023-01-04T02:39:34;41;28;18
57049;PMS7003;42935;50.966;16.992;2023-01-04T02:42:56;34;29;20
57049;PMS7003;42935;50.966;16.992;2023-01-04T02:46:32;44;35;23
57049;PMS7003;42935;50.966;16.992;2023-01-04T02:49:47;49;33;20
57049;PMS7003;42935;50.966;16.992;2023-01-04T02:53:09;34;28;17
57049;PMS7003;42935;50.966;16.992;2023-01-04T03:06:40;30;25;17
57049;PMS7003;42935;50.966;16.992;2023-01-04T03:09:55;28;25;17
57049;PMS7003;42935;50.966;16.992;2023-01-04T03:13:17;31;22;14
57049;PMS7003;42935;50.966;16.992;2023-01-04T03:16:34;34;24;16
57049;PMS7003;42935;50.966;16.992;2023-01-04T03:19:52;31;24;18
57049;PMS7003;42935;50.966;16.992;2023-01-04T03:23:06;39;26;17
57049;PMS7003;42935;50.966;16.992;2023-01-04T03:26:31;32;23;15
57049;PMS7003;42935;50.966;16.992;2023-01-04T03:30:01;32;26;17
57049;PMS7003;42935;50.966;16.992;2023-01-04T03:33:22;27;22;15
57049;PMS7003;42935;50.966;16.992;2023-01-04T03:36:52;37;32;22
57049;PMS7003;42935;50.966;16.992;2023-01-04T03:43:43;33;24;15
57049;PMS7003;42935;50.966;16.992;2023-01-04T03:47:07;40;26;17
57049;PMS7003;42935;50.966;16.992;2023-01-04T03:50:32;33;22;16
57049;PMS7003;42935;50.966;16.992;2023-01-04T03:57:15;33;28;18
57049;PMS7003;42935;50.966;16.992;2023-01-04T04:00:27;42;33;21
57049;PMS7003;42935;50.966;16.992;2023-01-04T04:03:34;36;26;17
57049;PMS7003;42935;50.966;16.992;2023-01-04T04:06:55;34;29;18
57049;PMS7003;42935;50.966;16.992;2023-01-04T04:10:19;35;27;19
57049;PMS7003;42935;50.966;16.992;2023-01-04T04:13:33;33;25;17
57049;PMS7003;42935;50.966;16.992;2023-01-04T04:16:47;41;29;18
57049;PMS7003;42935;50.966;16.992;2023-01-04T04:19:58;39;28;20
57049;PMS7003;42935;50.966;16.992;2023-01-04T04:23:38;47;35;21
57049;PMS7003;42935;50.966;16.992;2023-01-04T04:26:54;49;36;22
57049;PMS7003;42935;50.966;16.992;2023-01-04T04:30:11;50;40;24
57049;PMS7003;42935;50.966;16.992;2023-01-04T04:33:25;51;38;23
57049;PMS7003;42935;50.966;16.992;2023-01-04T04:36:43;55;41;25
57049;PMS7003;42935;50.966;16.992;2023-01-04T04:40:02;51;38;23
57049;PMS7003;42935;50.966;16.992;2023-01-04T04:43:13;44;34;23
57049;PMS7003;42935;50.966;16.992;2023-01-04T04:46:30;52;38;22
57049;PMS7003;42935;50.966;16.992;2023-01-04T04:49:35;49;36;23
57049;PMS7003;42935;50.966;16.992;2023-01-04T04:52:41;47;37;23
57049;PMS7003;42935;50.966;16.992;2023-01-04T04:55:56;47;36;23
57049;PMS7003;42935;50.966;16.992;2023-01-04T04:59:12;52;37;24
57049;PMS7003;42935;50.966;16.992;2023-01-04T05:02:22;53;37;24
57049;PMS7003;42935;50.966;16.992;2023-01-04T05:05:36;47;37;24
57049;PMS7003;42935;50.966;16.992;2023-01-04T05:08:51;51;38;25
57049;PMS7003;42935;50.966;16.992;2023-01-04T05:11:56;48;34;21
57049;PMS7003;42935;50.966;16.992;2023-01-04T05:15:20;49;36;22
57049;PMS7003;42935;50.966;16.992;2023-01-04T05:18:38;47;37;23
57049;PMS7003;42935;50.966;16.992;2023-01-04T05:21:56;49;36;23
57049;PMS7003;42935;50.966;16.992;2023-01-04T05:25:35;48;37;23
57049;PMS7003;42935;50.966;16.992;2023-01-04T05:28:40;50;35;22
57049;PMS7003;42935;50.966;16.992;2023-01-04T05:32:26;54;38;24
57049;PMS7003;42935;50.966;16.992;2023-01-04T05:36:15;49;37;22
57049;PMS7003;42935;50.966;16.992;2023-01-04T05:39:28;55;39;25
57049;PMS7003;42935;50.966;16.992;2023-01-04T05:42:42;53;41;25
57049;PMS7003;42935;50.966;16.992;2023-01-04T05:46:23;57;42;25
57049;PMS7003;42935;50.966;16.992;2023-01-04T05:49:39;57;42;27
57049;PMS7003;42935;50.966;16.992;2023-01-04T05:52:51;55;40;23
57049;PMS7003;42935;50.966;16.992;2023-01-04T05:56:00;52;38;25
57049;PMS7003;42935;50.966;16.992;2023-01-04T05:59:44;53;41;25
57049;PMS7003;42935;50.966;16.992;2023-01-04T06:03:24;52;36;24
57049;PMS7003;42935;50.966;16.992;2023-01-04T06:06:34;52;36;25
57049;PMS7003;42935;50.966;16.992;2023-01-04T06:09:46;56;39;25
57049;PMS7003;42935;50.966;16.992;2023-01-04T06:13:04;56;41;24
57049;PMS7003;42935;50.966;16.992;2023-01-04T06:16:14;62;44;28
57049;PMS7003;42935;50.966;16.992;2023-01-04T06:19:23;59;42;26
57049;PMS7003;42935;50.966;16.992;2023-01-04T06:22:37;59;45;28
57049;PMS7003;42935;50.966;16.992;2023-01-04T06:25:51;58;43;27
57049;PMS7003;42935;50.966;16.992;2023-01-04T06:29:35;55;42;27
57049;PMS7003;42935;50.966;16.992;2023-01-04T06:32:46;60;44;28
57049;PMS7003;42935;50.966;16.992;2023-01-04T06:35:56;56;43;27
57049;PMS7003;42935;50.966;16.992;2023-01-04T06:39:15;56;42;26
57049;PMS7003;42935;50.966;16.992;2023-01-04T06:42:33;60;43;26
57049;PMS7003;42935;50.966;16.992;2023-01-04T06:45:58;51;39;25
57049;PMS7003;42935;50.966;16.992;2023-01-04T06:49:41;48;38;24
57049;PMS7003;42935;50.966;16.992;2023-01-04T06:52:50;45;34;23
57049;PMS7003;42935;50.966;16.992;2023-01-04T06:56:07;46;33;23
57049;PMS7003;42935;50.966;16.992;2023-01-04T06:59:23;50;36;22
57049;PMS7003;42935;50.966;16.992;2023-01-04T07:02:31;40;31;20
57049;PMS7003;42935;50.966;16.992;2023-01-04T07:05:43;47;35;23
57049;PMS7003;42935;50.966;16.992;2023-01-04T07:08:59;42;34;23
57049;PMS7003;42935;50.966;16.992;2023-01-04T07:12:13;48;36;22
57049;PMS7003;42935;50.966;16.992;2023-01-04T07:15:23;42;32;21
57049;PMS7003;42935;50.966;16.992;2023-01-04T07:18:36;41;32;19
57049;PMS7003;42935;50.966;16.992;2023-01-04T07:21:49;36;30;20
57049;PMS7003;42935;50.966;16.992;2023-01-04T07:24:58;36;30;21
57049;PMS7003;42935;50.966;16.992;2023-01-04T07:28:14;43;32;20
57049;PMS7003;42935;50.966;16.992;2023-01-04T07:31:38;38;29;19
57049;PMS7003;42935;50.966;16.992;2023-01-04T07:34:48;41;30;21
57049;PMS7003;42935;50.966;16.992;2023-01-04T07:38:01;37;29;19
57049;PMS7003;42935;50.966;16.992;2023-01-04T07:41:13;40;34;20
57049;PMS7003;42935;50.966;16.992;2023-01-04T07:44:31;39;32;18
57049;PMS7003;42935;50.966;16.992;2023-01-04T07:47:40;34;30;18
57049;PMS7003;42935;50.966;16.992;2023-01-04T07:50:47;33;25;17
57049;PMS7003;42935;50.966;16.992;2023-01-04T07:54:01;45;32;20
57049;PMS7003;42935;50.966;16.992;2023-01-04T07:57:15;38;30;17
57049;PMS7003;42935;50.966;16.992;2023-01-04T08:00:30;37;30;20
57049;PMS7003;42935;50.966;16.992;2023-01-04T08:03:40;32;27;18
57049;PMS7003;42935;50.966;16.992;2023-01-04T08:06:48;33;25;17
57049;PMS7003;42935;50.966;16.992;2023-01-04T08:09:56;32;26;17
57049;PMS7003;42935;50.966;16.992;2023-01-04T08:13:06;31;26;17
57049;PMS7003;42935;50.966;16.992;2023-01-04T08:16:21;42;28;18
57049;PMS7003;42935;50.966;16.992;2023-01-04T08:19:37;33;26;18
57049;PMS7003;42935;50.966;16.992;2023-01-04T08:22:52;39;28;19
57049;PMS7003;42935;50.966;16.992;2023-01-04T08:26:07;36;29;19
57049;PMS7003;42935;50.966;16.992;2023-01-04T08:29:23;35;29;18
57049;PMS7003;42935;50.966;16.992;2023-01-04T08:32:32;27;22;15
57049;PMS7003;42935;50.966;16.992;2023-01-04T08:35:47;33;27;17
57049;PMS7003;42935;50.966;16.992;2023-01-04T08:39:02;33;26;17
57049;PMS7003;42935;50.966;16.992;2023-01-04T08:42:11;27;21;16
57049;PMS7003;42935;50.966;16.992;2023-01-04T08:45:20;32;21;14
57049;PMS7003;42935;50.966;16.992;2023-01-04T08:48:33;32;26;17
57049;PMS7003;42935;50.966;16.992;2023-01-04T08:51:40;28;20;15
57049;PMS7003;42935;50.966;16.992;2023-01-04T08:54:48;28;23;17
57049;PMS7003;42935;50.966;16.992;2023-01-04T08:58:05;25;20;14
57049;PMS7003;42935;50.966;16.992;2023-01-04T09:01:15;23;20;14
57049;PMS7003;42935;50.966;16.992;2023-01-04T09:04:27;24;19;13
57049;PMS7003;42935;50.966;16.992;2023-01-04T09:07:36;23;18;12
57049;PMS7003;42935;50.966;16.992;2023-01-04T09:10:47;24;21;15
57049;PMS7003;42935;50.966;16.992;2023-01-04T09:14:27;19;16;11
57049;PMS7003;42935;50.966;16.992;2023-01-04T09:17:37;20;18;13
57049;PMS7003;42935;50.966;16.992;2023-01-04T09:20:49;25;20;15
57049;PMS7003;42935;50.966;16.992;2023-01-04T09:24:08;22;20;13
57049;PMS7003;42935;50.966;16.992;2023-01-04T09:27:18;23;19;12
57049;PMS7003;42935;50.966;16.992;2023-01-04T09:30:28;22;17;12
57049;PMS7003;42935;50.966;16.992;2023-01-04T09:33:42;20;18;11
57049;PMS7003;42935;50.966;16.992;2023-01-04T09:36:54;20;15;11
57049;PMS7003;42935;50.966;16.992;2023-01-04T09:40:04;19;14;10
57049;PMS7003;42935;50.966;16.992;2023-01-04T09:43:15;16;15;11
57049;PMS7003;42935;50.966;16.992;2023-01-04T09:53:11;16;14;9
57049;PMS7003;42935;50.966;16.992;2023-01-04T09:56:34;15;13;8
57049;PMS7003;42935;50.966;16.992;2023-01-04T09:59:46;16;11;8
57049;PMS7003;42935;50.966;16.992;2023-01-04T10:03:23;14;11;8
57049;PMS7003;42935;50.966;16.992;2023-01-04T10:06:18;14;12;9
57049;PMS7003;42935;50.966;16.992;2023-01-04T10:09:26;15;12;10
57049;PMS7003;42935;50.966;16.992;2023-01-04T10:15:54;10;8;6
57049;PMS7003;42935;50.966;16.992;2023-01-04T10:19:17;6;4;3
57049;PMS7003;42935;50.966;16.992;2023-01-04T10:25:59;6;3;2
57049;PMS7003;42935;50.966;16.992;2023-01-04T10:29:56;9;6;4
57049;PMS7003;42935;50.966;16.992;2023-01-04T10:36:37;8;6;5
57049;PMS7003;42935;50.966;16.992;2023-01-04T10:39:49;6;5;4
57049;PMS7003;42935;50.966;16.992;2023-01-04T10:43:05;11;7;6
57049;PMS7003;42935;50.966;16.992;2023-01-04T10:46:28;12;11;6
57049;PMS7003;42935;50.966;16.992;2023-01-04T10:53:29;8;6;4
57049;PMS7003;42935;50.966;16.992;2023-01-04T10:56:32;7;6;4
57049;PMS7003;42935;50.966;16.992;2023-01-04T10:59:53;7;6;5
57049;PMS7003;42935;50.966;16.992;2023-01-04T11:03:10;8;6;4
57049;PMS7003;42935;50.966;16.992;2023-01-04T11:06:30;9;6;4
57049;PMS7003;42935;50.966;16.992;2023-01-04T11:13:07;4;3;3
57049;PMS7003;42935;50.966;16.992;2023-01-04T11:16:17;5;4;3
57049;PMS7003;42935;50.966;16.992;2023-01-04T11:19:27;7;5;4
57049;PMS7003;42935;50.966;16.992;2023-01-04T11:22:52;8;5;4
57049;PMS7003;42935;50.966;16.992;2023-01-04T11:26:11;6;4;3
57049;PMS7003;42935;50.966;16.992;2023-01-04T11:29:32;4;3;2
57049;PMS7003;42935;50.966;16.992;2023-01-04T11:36:10;5;5;3
57049;PMS7003;42935;50.966;16.992;2023-01-04T11:39:33;5;4;4
57049;PMS7003;42935;50.966;16.992;2023-01-04T11:42:43;3;3;2
57049;PMS7003;42935;50.966;16.992;2023-01-04T11:45:56;7;4;3
57049;PMS7003;42935;50.966;16.992;2023-01-04T11:49:17;7;4;2
57049;PMS7003;42935;50.966;16.992;2023-01-04T11:52:32;4;2;2
57049;PMS7003;42935;50.966;16.992;2023-01-04T11:55:48;3;2;1
57049;PMS7003;42935;50.966;16.992;2023-01-04T12:02:21;1;1;1
57049;PMS7003;42935;50.966;16.992;2023-01-04T12:05:31;1;1;1
57049;PMS7003;42935;50.966;16.992;2023-01-04T12:08:40;1;1;1
57049;PMS7003;42935;50.966;16.992;2023-01-04T12:11:52;1;1;1
57049;PMS7003;42935;50.966;16.992;2023-01-04T12:20:15;3;2;2
57049;PMS7003;42935;50.966;16.992;2023-01-04T12:23:24;6;2;1
57049;PMS7003;42935;50.966;16.992;2023-01-04T12:26:38;4;2;2
57049;PMS7003;42935;50.966;16.992;2023-01-04T12:39:43;5;2;2
57049;PMS7003;42935;50.966;16.992;2023-01-04T12:49:48;4;2;2
57049;PMS7003;42935;50.966;16.992;2023-01-04T12:53:01;2;2;1
57049;PMS7003;42935;50.966;16.992;2023-01-04T12:56:09;5;2;2
57049;PMS7003;42935;50.966;16.992;2023-01-04T13:03:41;2;2;1
57049;PMS7003;42935;50.966;16.992;2023-01-04T13:06:54;3;2;1
57049;PMS7003;42935;50.966;16.992;2023-01-04T13:16:45;2;2;2
57049;PMS7003;42935;50.966;16.992;2023-01-04T13:23:24;3;2;2
57049;PMS7003;42935;50.966;16.992;2023-01-04T13:26:37;4;3;3
57049;PMS7003;42935;50.966;16.992;2023-01-04T13:29:49;5;3;2
57049;PMS7003;42935;50.966;16.992;2023-01-04T13:33:26;3;3;2
57049;PMS7003;42935;50.966;16.992;2023-01-04T13:36:33;5;3;3
57049;PMS7003;42935;50.966;16.992;2023-01-04T13:39:40;6;3;2
57049;PMS7003;42935;50.966;16.992;2023-01-04T13:46:19;6;4;3
57049;PMS7003;42935;50.966;16.992;2023-01-04T13:49:32;6;4;2
57049;PMS7003;42935;50.966;16.992;2023-01-04T13:52:45;6;5;3
57049;PMS7003;42935;50.966;16.992;2023-01-04T13:55:57;9;5;4
57049;PMS7003;42935;50.966;16.992;2023-01-04T13:59:09;6;5;3
57049;PMS7003;42935;50.966;16.992;2023-01-04T14:02:23;6;5;4
57049;PMS7003;42935;50.966;16.992;2023-01-04T14:05:33;9;4;3
57049;PMS7003;42935;50.966;16.992;2023-01-04T14:12:07;6;5;3
57049;PMS7003;42935;50.966;16.992;2023-01-04T14:15:23;9;5;3
57049;PMS7003;42935;50.966;16.992;2023-01-04T14:18:34;5;4;3
57049;PMS7003;42935;50.966;16.992;2023-01-04T14:21:44;4;3;2
57049;PMS7003;42935;50.966;16.992;2023-01-04T14:24:56;6;4;2
57049;PMS7003;42935;50.966;16.992;2023-01-04T14:31:29;4;2;2
57049;PMS7003;42935;50.966;16.992;2023-01-04T14:34:43;8;5;3
57049;PMS7003;42935;50.966;16.992;2023-01-04T14:37:48;6;5;4
57049;PMS7003;42935;50.966;16.992;2023-01-04T14:41:08;7;4;3
57049;PMS7003;42935;50.966;16.992;2023-01-04T14:44:19;5;4;3
57049;PMS7003;42935;50.966;16.992;2023-01-04T14:47:29;6;6;4
57049;PMS7003;42935;50.966;16.992;2023-01-04T14:50:38;8;7;5
57049;PMS7003;42935;50.966;16.992;2023-01-04T14:53:45;8;6;5
57049;PMS7003;42935;50.966;16.992;2023-01-04T14:56:57;10;7;5
57049;PMS7003;42935;50.966;16.992;2023-01-04T15:00:07;10;7;6
57049;PMS7003;42935;50.966;16.992;2023-01-04T15:03:25;9;8;7
57049;PMS7003;42935;50.966;16.992;2023-01-04T15:06:34;12;9;6
57049;PMS7003;42935;50.966;16.992;2023-01-04T15:09:49;10;8;5
57049;PMS7003;42935;50.966;16.992;2023-01-04T15:12:58;10;8;7
57049;PMS7003;42935;50.966;16.992;2023-01-04T15:16:05;12;8;7
57049;PMS7003;42935;50.966;16.992;2023-01-04T15:19:15;9;8;7
57049;PMS7003;42935;50.966;16.992;2023-01-04T15:22:22;10;8;7
57049;PMS7003;42935;50.966;16.992;2023-01-04T15:25:28;10;8;7
57049;PMS7003;42935;50.966;16.992;2023-01-04T15:28:38;9;8;6
57049;PMS7003;42935;50.966;16.992;2023-01-04T15:31:48;9;8;5
57049;PMS7003;42935;50.966;16.992;2023-01-04T15:34:58;11;9;7
57049;PMS7003;42935;50.966;16.992;2023-01-04T15:38:06;9;9;8
57049;PMS7003;42935;50.966;16.992;2023-01-04T15:41:14;9;8;7
57049;PMS7003;42935;50.966;16.992;2023-01-04T15:44:34;11;8;6
57049;PMS7003;42935;50.966;16.992;2023-01-04T15:47:41;13;9;7
57049;PMS7003;42935;50.966;16.992;2023-01-04T15:50:46;9;8;6
57049;PMS7003;42935;50.966;16.992;2023-01-04T15:53:53;13;9;7
57049;PMS7003;42935;50.966;16.992;2023-01-04T15:56:59;10;9;7
57049;PMS7003;42935;50.966;16.992;2023-01-04T16:00:06;9;8;6
57049;PMS7003;42935;50.966;16.992;2023-01-04T16:03:20;11;11;8
57049;PMS7003;42935;50.966;16.992;2023-01-04T16:06:29;11;9;7
57049;PMS7003;42935;50.966;16.992;2023-01-04T16:09:36;11;9;7
57049;PMS7003;42935;50.966;16.992;2023-01-04T16:12:45;10;8;6
57049;PMS7003;42935;50.966;16.992;2023-01-04T16:15:58;9;8;6
57049;PMS7003;42935;50.966;16.992;2023-01-04T16:19:11;11;8;7
57049;PMS7003;42935;50.966;16.992;2023-01-04T16:22:20;11;9;7
57049;PMS7003;42935;50.966;16.992;2023-01-04T16:25:32;12;9;7
57049;PMS7003;42935;50.966;16.992;2023-01-04T16:28:42;13;11;8
57049;PMS7003;42935;50.966;16.992;2023-01-04T16:32:01;15;11;8
57049;PMS7003;42935;50.966;16.992;2023-01-04T16:35:12;14;11;8
57049;PMS7003;42935;50.966;16.992;2023-01-04T16:38:21;13;9;7
57049;PMS7003;42935;50.966;16.992;2023-01-04T16:41:31;16;13;9
57049;PMS7003;42935;50.966;16.992;2023-01-04T16:44:40;15;14;9
57049;PMS7003;42935;50.966;16.992;2023-01-04T16:47:51;16;13;10
57049;PMS7003;42935;50.966;16.992;2023-01-04T16:51:01;14;11;9
57049;PMS7003;42935;50.966;16.992;2023-01-04T16:54:20;14;12;8
57049;PMS7003;42935;50.966;16.992;2023-01-04T16:57:29;15;12;9
57049;PMS7003;42935;50.966;16.992;2023-01-04T17:00:39;14;13;9
57049;PMS7003;42935;50.966;16.992;2023-01-04T17:03:45;15;12;10
57049;PMS7003;42935;50.966;16.992;2023-01-04T17:06:56;15;14;11
57049;PMS7003;42935;50.966;16.992;2023-01-04T17:10:01;18;14;10
57049;PMS7003;42935;50.966;16.992;2023-01-04T17:13:12;15;12;9
57049;PMS7003;42935;50.966;16.992;2023-01-04T17:16:23;17;12;10
57049;PMS7003;42935;50.966;16.992;2023-01-04T17:19:30;15;12;10
57049;PMS7003;42935;50.966;16.992;2023-01-04T17:22:43;16;13;11
57049;PMS7003;42935;50.966;16.992;2023-01-04T17:25:53;13;12;8
57049;PMS7003;42935;50.966;16.992;2023-01-04T17:29:07;15;14;10
57049;PMS7003;42935;50.966;16.992;2023-01-04T17:32:17;16;14;9
57049;PMS7003;42935;50.966;16.992;2023-01-04T17:35:28;14;13;8
57049;PMS7003;42935;50.966;16.992;2023-01-04T17:38:38;14;12;8
57049;PMS7003;42935;50.966;16.992;2023-01-04T17:41:49;15;12;10
57049;PMS7003;42935;50.966;16.992;2023-01-04T17:45:28;15;12;9
57049;PMS7003;42935;50.966;16.992;2023-01-04T17:48:39;15;13;10
57049;PMS7003;42935;50.966;16.992;2023-01-04T17:51:50;16;12;9
57049;PMS7003;42935;50.966;16.992;2023-01-04T17:55:01;15;13;9
57049;PMS7003;42935;50.966;16.992;2023-01-04T17:58:11;11;11;9
57049;PMS7003;42935;50.966;16.992;2023-01-04T18:01:23;18;15;10
57049;PMS7003;42935;50.966;16.992;2023-01-04T18:04:34;16;12;9
57049;PMS7003;42935;50.966;16.992;2023-01-04T18:07:46;11;10;7
57049;PMS7003;42935;50.966;16.992;2023-01-04T18:11:24;15;11;9
57049;PMS7003;42935;50.966;16.992;2023-01-04T18:14:34;12;10;8
57049;PMS7003;42935;50.966;16.992;2023-01-04T18:17:43;16;12;9
57049;PMS7003;42935;50.966;16.992;2023-01-04T18:20:51;13;9;8
57049;PMS7003;42935;50.966;16.992;2023-01-04T18:24:01;12;10;8
57049;PMS7003;42935;50.966;16.992;2023-01-04T18:27:12;15;12;9
57049;PMS7003;42935;50.966;16.992;2023-01-04T18:30:20;11;10;7
57049;PMS7003;42935;50.966;16.992;2023-01-04T18:33:29;14;13;9
57049;PMS7003;42935;50.966;16.992;2023-01-04T18:36:42;16;14;10
57049;PMS7003;42935;50.966;16.992;2023-01-04T18:39:59;16;13;10
57049;PMS7003;42935;50.966;16.992;2023-01-04T18:43:13;17;13;10
57049;PMS7003;42935;50.966;16.992;2023-01-04T18:46:20;20;15;10
57049;PMS7003;42935;50.966;16.992;2023-01-04T18:49:30;12;10;7
57049;PMS7003;42935;50.966;16.992;2023-01-04T18:52:38;12;12;8
57049;PMS7003;42935;50.966;16.992;2023-01-04T18:55:52;13;11;8
57049;PMS7003;42935;50.966;16.992;2023-01-04T18:59:01;11;10;8
57049;PMS7003;42935;50.966;16.992;2023-01-04T19:02:13;12;10;7
57049;PMS7003;42935;50.966;16.992;2023-01-04T19:05:20;13;11;9
57049;PMS7003;42935;50.966;16.992;2023-01-04T19:08:28;11;9;7
57049;PMS7003;42935;50.966;16.992;2023-01-04T19:11:45;12;11;7
57049;PMS7003;42935;50.966;16.992;2023-01-04T19:14:50;11;8;7
57049;PMS7003;42935;50.966;16.992;2023-01-04T19:17:57;7;7;5
57049;PMS7003;42935;50.966;16.992;2023-01-04T19:21:07;12;7;5
57049;PMS7003;42935;50.966;16.992;2023-01-04T19:24:16;7;7;5
57049;PMS7003;42935;50.966;16.992;2023-01-04T19:27:21;5;5;3
57049;PMS7003;42935;50.966;16.992;2023-01-04T19:30:30;8;6;5
57049;PMS7003;42935;50.966;16.992;2023-01-04T19:33:42;8;6;5
57049;PMS7003;42935;50.966;16.992;2023-01-04T19:36:50;8;8;5
57049;PMS7003;42935;50.966;16.992;2023-01-04T19:40:00;7;6;5
57049;PMS7003;42935;50.966;16.992;2023-01-04T19:43:06;7;5;3
57049;PMS7003;42935;50.966;16.992;2023-01-04T19:46:16;5;4;3
57049;PMS7003;42935;50.966;16.992;2023-01-04T19:49:26;6;4;3
57049;PMS7003;42935;50.966;16.992;2023-01-04T19:52:37;4;4;4
57049;PMS7003;42935;50.966;16.992;2023-01-04T19:55:44;7;4;3
57049;PMS7003;42935;50.966;16.992;2023-01-04T19:58:49;6;3;2
57049;PMS7003;42935;50.966;16.992;2023-01-04T20:01:58;6;4;3
57049;PMS7003;42935;50.966;16.992;2023-01-04T20:05:03;5;3;2
57049;PMS7003;42935;50.966;16.992;2023-01-04T20:08:11;3;3;3
57049;PMS7003;42935;50.966;16.992;2023-01-04T20:11:21;5;4;3
57049;PMS7003;42935;50.966;16.992;2023-01-04T20:14:29;5;5;4
57049;PMS7003;42935;50.966;16.992;2023-01-04T20:17:41;4;4;3
57049;PMS7003;42935;50.966;16.992;2023-01-04T20:20:48;4;3;3
57049;PMS7003;42935;50.966;16.992;2023-01-04T20:23:59;4;4;3
57049;PMS7003;42935;50.966;16.992;2023-01-04T20:27:08;6;4;3
57049;PMS7003;42935;50.966;16.992;2023-01-04T20:30:15;5;4;3
57049;PMS7003;42935;50.966;16.992;2023-01-04T20:33:21;3;2;2
57049;PMS7003;42935;50.966;16.992;2023-01-04T20:36:30;6;3;2
57049;PMS7003;42935;50.966;16.992;2023-01-04T20:39:40;4;3;2
57049;PMS7003;42935;50.966;16.992;2023-01-04T20:42:50;4;3;3
57049;PMS7003;42935;50.966;16.992;2023-01-04T20:46:26;3;3;3
57049;PMS7003;42935;50.966;16.992;2023-01-04T20:49:29;2;2;2
57049;PMS7003;42935;50.966;16.992;2023-01-04T20:52:36;3;2;2
57049;PMS7003;42935;50.966;16.992;2023-01-04T20:55:45;3;2;2
57049;PMS7003;42935;50.966;16.992;2023-01-04T20:58:54;4;2;2
57049;PMS7003;42935;50.966;16.992;2023-01-04T21:02:10;5;2;2
57049;PMS7003;42935;50.966;16.992;2023-01-04T21:05:22;3;2;2
57049;PMS7003;42935;50.966;16.992;2023-01-04T21:08:30;3;2;1
57049;PMS7003;42935;50.966;16.992;2023-01-04T21:11:40;5;3;2
57049;PMS7003;42935;50.966;16.992;2023-01-04T21:14:49;4;2;2
57049;PMS7003;42935;50.966;16.992;2023-01-04T21:17:56;5;4;3
57049;PMS7003;42935;50.966;16.992;2023-01-04T21:21:07;5;3;3
57049;PMS7003;42935;50.966;16.992;2023-01-04T21:24:15;3;3;2
57049;PMS7003;42935;50.966;16.992;2023-01-04T21:27:20;8;5;4
57049;PMS7003;42935;50.966;16.992;2023-01-04T21:30:30;7;4;4
57049;PMS7003;42935;50.966;16.992;2023-01-04T21:33:41;7;6;4
57049;PMS7003;42935;50.966;16.992;2023-01-04T21:36:55;6;6;4
57049;PMS7003;42935;50.966;16.992;2023-01-04T21:40:04;7;7;5
57049;PMS7003;42935;50.966;16.992;2023-01-04T21:43:14;10;7;5
57049;PMS7003;42935;50.966;16.992;2023-01-04T21:46:22;6;5;4
57049;PMS7003;42935;50.966;16.992;2023-01-04T21:49:30;11;9;7
57049;PMS7003;42935;50.966;16.992;2023-01-04T21:52:37;8;6;5
57049;PMS7003;42935;50.966;16.992;2023-01-04T21:55:46;9;8;7
57049;PMS7003;42935;50.966;16.992;2023-01-04T21:58:55;11;8;7
57049;PMS7003;42935;50.966;16.992;2023-01-04T22:02:13;6;6;5
57049;PMS7003;42935;50.966;16.992;2023-01-04T22:05:23;6;4;3
57049;PMS7003;42935;50.966;16.992;2023-01-04T22:08:30;5;4;3
57049;PMS7003;42935;50.966;16.992;2023-01-04T22:11:35;7;6;6
57049;PMS7003;42935;50.966;16.992;2023-01-04T22:14:49;3;3;2
57049;PMS7003;42935;50.966;16.992;2023-01-04T22:18:00;2;2;2
57049;PMS7003;42935;50.966;16.992;2023-01-04T22:21:11;1;1;1
57049;PMS7003;42935;50.966;16.992;2023-01-04T22:24:22;2;1;1
57049;PMS7003;42935;50.966;16.992;2023-01-04T22:27:34;1;1;1
57049;PMS7003;42935;50.966;16.992;2023-01-04T22:30:41;2;2;1
57049;PMS7003;42935;50.966;16.992;2023-01-04T22:33:53;1;1;1
57049;PMS7003;42935;50.966;16.992;2023-01-04T22:37:03;2;1;1